sensor_id;sensor_type;location;lat;lon;timestamp;pressure;altitude;pressure_sealevel;temperature;humidity
66479;BME280;53294;47.912;13.526;2023-02-14T00:00:56;98058.44;;;2.07;59.67
66479;BME280;53294;47.912;13.526;2023-02-14T00:03:23;98051.94;;;2.10;59.76
66479;BME280;53294;47.912;13.526;2023-02-14T00:05:49;98058.44;;;2.07;59.80
66479;BME280;53294;47.912;13.526;2023-02-14T00:08:16;98057.44;;;2.15;59.44
66479;BME280;53294;47.912;13.526;2023-02-14T00:10:43;98054.78;;;2.08;59.56
66479;BME280;53294;47.912;13.526;2023-02-14T00:13:09;98048.19;;;1.97;60.71
66479;BME280;53294;47.912;13.526;2023-02-14T00:15:36;98049.97;;;1.90;60.76
66479;BME280;53294;47.912;13.526;2023-02-14T00:18:02;98058.41;;;2.01;60.21
66479;BME280;53294;47.912;13.526;2023-02-14T00:20:29;98051.53;;;2.13;59.89
66479;BME280;53294;47.912;13.526;2023-02-14T00:22:56;98054.19;;;2.13;59.53
66479;BME280;53294;47.912;13.526;2023-02-14T00:25:22;98054.59;;;2.17;59.37
66479;BME280;53294;47.912;13.526;2023-02-14T00:27:49;98058.41;;;2.01;60.42
66479;BME280;53294;47.912;13.526;2023-02-14T00:30:16;98060.00;;;2.02;60.14
66479;BME280;53294;47.912;13.526;2023-02-14T00:32:43;98061.66;;;2.03;60.00
66479;BME280;53294;47.912;13.526;2023-02-14T00:35:09;98058.06;;;2.17;59.37
66479;BME280;53294;47.912;13.526;2023-02-14T00:37:37;98067.00;;;2.09;59.59
66479;BME280;53294;47.912;13.526;2023-02-14T00:40:04;98063.69;;;2.01;59.65
66479;BME280;53294;47.912;13.526;2023-02-14T00:42:31;98062.84;;;2.00;59.50
66479;BME280;53294;47.912;13.526;2023-02-14T00:44:58;98067.34;;;2.00;59.16
66479;BME280;53294;47.912;13.526;2023-02-14T00:47:24;98070.97;;;1.92;59.61
66479;BME280;53294;47.912;13.526;2023-02-14T00:49:51;98073.81;;;1.90;59.83
66479;BME280;53294;47.912;13.526;2023-02-14T00:52:18;98073.44;;;1.93;59.94
66479;BME280;53294;47.912;13.526;2023-02-14T00:54:44;98068.63;;;2.04;59.57
66479;BME280;53294;47.912;13.526;2023-02-14T00:57:11;98067.47;;;2.20;58.88
66479;BME280;53294;47.912;13.526;2023-02-14T00:59:38;98055.88;;;2.27;58.89
66479;BME280;53294;47.912;13.526;2023-02-14T01:02:04;98066.00;;;2.10;59.90
66479;BME280;53294;47.912;13.526;2023-02-14T01:04:31;98060.31;;;2.20;59.47
66479;BME280;53294;47.912;13.526;2023-02-14T01:06:57;98069.16;;;2.27;59.49
66479;BME280;53294;47.912;13.526;2023-02-14T01:09:24;98067.09;;;2.23;60.16
66479;BME280;53294;47.912;13.526;2023-02-14T01:11:51;98056.72;;;2.34;60.13
66479;BME280;53294;47.912;13.526;2023-02-14T01:14:17;98060.59;;;2.32;60.51
66479;BME280;53294;47.912;13.526;2023-02-14T01:16:44;98061.44;;;2.39;60.51
66479;BME280;53294;47.912;13.526;2023-02-14T01:19:11;98057.06;;;2.60;59.48
66479;BME280;53294;47.912;13.526;2023-02-14T01:21:37;98063.63;;;2.71;59.05
66479;BME280;53294;47.912;13.526;2023-02-14T01:24:05;98065.69;;;2.75;58.77
66479;BME280;53294;47.912;13.526;2023-02-14T01:26:33;98051.44;;;2.83;58.82
66479;BME280;53294;47.912;13.526;2023-02-14T01:29:00;98056.75;;;2.83;58.86
66479;BME280;53294;47.912;13.526;2023-02-14T01:31:28;98061.41;;;2.81;59.32
66479;BME280;53294;47.912;13.526;2023-02-14T01:33:56;98059.00;;;2.86;58.78
66479;BME280;53294;47.912;13.526;2023-02-14T01:36:27;98051.44;;;2.96;58.64
66479;BME280;53294;47.912;13.526;2023-02-14T01:39:00;98049.19;;;2.86;59.92
66479;BME280;53294;47.912;13.526;2023-02-14T01:41:30;98050.56;;;2.76;59.99
66479;BME280;53294;47.912;13.526;2023-02-14T01:44:05;98053.69;;;2.93;59.55
66479;BME280;53294;47.912;13.526;2023-02-14T01:46:34;98049.84;;;2.95;59.45
66479;BME280;53294;47.912;13.526;2023-02-14T01:51:41;98051.66;;;3.01;59.26
66479;BME280;53294;47.912;13.526;2023-02-14T01:54:08;98044.13;;;2.98;59.67
66479;BME280;53294;47.912;13.526;2023-02-14T01:56:43;98039.19;;;2.88;60.62
66479;BME280;53294;47.912;13.526;2023-02-14T01:59:15;98043.94;;;3.07;59.85
66479;BME280;53294;47.912;13.526;2023-02-14T02:01:44;98048.41;;;3.06;59.89
66479;BME280;53294;47.912;13.526;2023-02-14T02:04:16;98031.84;;;3.11;60.07
66479;BME280;53294;47.912;13.526;2023-02-14T02:06:51;98033.91;;;2.95;61.13
66479;BME280;53294;47.912;13.526;2023-02-14T02:09:29;98025.13;;;3.21;59.74
66479;BME280;53294;47.912;13.526;2023-02-14T02:11:58;98030.28;;;3.30;59.54
66479;BME280;53294;47.912;13.526;2023-02-14T02:14:24;98023.72;;;3.19;60.37
66479;BME280;53294;47.912;13.526;2023-02-14T02:17:28;98024.34;;;3.48;59.73
66479;BME280;53294;47.912;13.526;2023-02-14T02:29:07;98006.97;;;3.52;60.35
66479;BME280;53294;47.912;13.526;2023-02-14T02:35:00;98015.56;;;3.40;61.09
66479;BME280;53294;47.912;13.526;2023-02-14T02:40:28;98001.25;;;3.28;61.16
66479;BME280;53294;47.912;13.526;2023-02-14T02:43:20;97997.56;;;3.36;61.13
66479;BME280;53294;47.912;13.526;2023-02-14T02:46:10;97998.38;;;3.23;62.03
66479;BME280;53294;47.912;13.526;2023-02-14T02:49:08;97995.09;;;3.48;61.55
66479;BME280;53294;47.912;13.526;2023-02-14T02:51:52;97998.38;;;3.56;60.72
66479;BME280;53294;47.912;13.526;2023-02-14T02:54:45;98011.06;;;3.34;62.69
66479;BME280;53294;47.912;13.526;2023-02-14T02:57:31;98001.66;;;3.38;62.02
66479;BME280;53294;47.912;13.526;2023-02-14T03:00:01;97991.44;;;3.49;61.83
66479;BME280;53294;47.912;13.526;2023-02-14T03:02:32;97989.78;;;3.48;62.07
66479;BME280;53294;47.912;13.526;2023-02-14T03:05:20;97992.84;;;3.45;62.50
66479;BME280;53294;47.912;13.526;2023-02-14T03:07:48;97993.50;;;3.47;62.66
66479;BME280;53294;47.912;13.526;2023-02-14T03:10:21;97992.03;;;3.64;61.89
66479;BME280;53294;47.912;13.526;2023-02-14T03:29:04;97989.38;;;3.71;62.57
66479;BME280;53294;47.912;13.526;2023-02-14T03:31:59;97995.09;;;3.08;66.49
66479;BME280;53294;47.912;13.526;2023-02-14T03:34:34;97995.19;;;2.59;67.75
66479;BME280;53294;47.912;13.526;2023-02-14T03:39:43;98000.75;;;2.64;66.85
66479;BME280;53294;47.912;13.526;2023-02-14T03:42:31;97997.34;;;2.97;65.66
66479;BME280;53294;47.912;13.526;2023-02-14T03:45:01;97997.94;;;3.06;64.47
66479;BME280;53294;47.912;13.526;2023-02-14T03:47:32;97998.94;;;2.92;66.06
66479;BME280;53294;47.912;13.526;2023-02-14T03:50:05;98004.75;;;2.47;68.71
66479;BME280;53294;47.912;13.526;2023-02-14T03:52:33;97997.53;;;2.21;69.41
66479;BME280;53294;47.912;13.526;2023-02-14T03:55:04;98003.75;;;2.55;67.35
66479;BME280;53294;47.912;13.526;2023-02-14T04:00:07;97996.69;;;2.82;65.02
66479;BME280;53294;47.912;13.526;2023-02-14T04:02:49;97992.63;;;2.99;64.89
66479;BME280;53294;47.912;13.526;2023-02-14T04:05:22;97992.22;;;3.02;64.79
66479;BME280;53294;47.912;13.526;2023-02-14T04:07:54;97986.13;;;3.09;64.41
66479;BME280;53294;47.912;13.526;2023-02-14T04:10:21;97989.38;;;3.11;64.41
66479;BME280;53294;47.912;13.526;2023-02-14T04:12:49;97992.66;;;3.19;64.09
66479;BME280;53294;47.912;13.526;2023-02-14T04:15:16;97991.00;;;2.92;65.59
66479;BME280;53294;47.912;13.526;2023-02-14T04:17:43;97991.22;;;2.97;65.06
66479;BME280;53294;47.912;13.526;2023-02-14T04:20:29;97993.06;;;3.16;64.30
66479;BME280;53294;47.912;13.526;2023-02-14T04:22:56;97993.91;;;3.23;63.65
66479;BME280;53294;47.912;13.526;2023-02-14T04:25:23;97985.31;;;3.28;63.70
66479;BME280;53294;47.912;13.526;2023-02-14T04:27:49;97991.44;;;3.35;63.45
66479;BME280;53294;47.912;13.526;2023-02-14T04:30:16;97994.28;;;3.27;63.17
66479;BME280;53294;47.912;13.526;2023-02-14T04:32:43;97992.84;;;3.24;63.27
66479;BME280;53294;47.912;13.526;2023-02-14T04:35:10;97982.47;;;3.30;62.90
66479;BME280;53294;47.912;13.526;2023-02-14T04:37:37;97983.06;;;3.12;63.66
66479;BME280;53294;47.912;13.526;2023-02-14T04:40:04;97981.97;;;2.79;65.02
66479;BME280;53294;47.912;13.526;2023-02-14T04:42:31;97985.22;;;2.61;65.52
66479;BME280;53294;47.912;13.526;2023-02-14T04:44:58;97984.78;;;2.58;65.20
66479;BME280;53294;47.912;13.526;2023-02-14T04:47:25;97990.09;;;2.51;65.65
66479;BME280;53294;47.912;13.526;2023-02-14T04:49:51;97986.97;;;2.41;65.69
66479;BME280;53294;47.912;13.526;2023-02-14T04:52:18;97997.44;;;2.49;65.10
66479;BME280;53294;47.912;13.526;2023-02-14T04:54:45;97992.84;;;2.29;65.72
66479;BME280;53294;47.912;13.526;2023-02-14T04:57:11;97986.53;;;2.24;65.73
66479;BME280;53294;47.912;13.526;2023-02-14T04:59:38;97992.13;;;2.49;64.75
66479;BME280;53294;47.912;13.526;2023-02-14T05:02:04;97995.72;;;2.34;65.34
66479;BME280;53294;47.912;13.526;2023-02-14T05:04:31;97993.06;;;2.28;65.38
66479;BME280;53294;47.912;13.526;2023-02-14T05:06:58;97981.03;;;2.32;64.94
66479;BME280;53294;47.912;13.526;2023-02-14T05:09:24;97991.19;;;2.22;65.33
66479;BME280;53294;47.912;13.526;2023-02-14T05:11:51;97989.97;;;2.18;65.37
66479;BME280;53294;47.912;13.526;2023-02-14T05:14:18;97989.31;;;2.15;65.45
66479;BME280;53294;47.912;13.526;2023-02-14T05:16:45;97991.22;;;2.28;65.25
66479;BME280;53294;47.912;13.526;2023-02-14T05:19:11;97986.75;;;2.36;64.63
66479;BME280;53294;47.912;13.526;2023-02-14T05:21:38;97985.78;;;2.50;63.82
66479;BME280;53294;47.912;13.526;2023-02-14T05:24:05;97992.72;;;2.51;63.66
66479;BME280;53294;47.912;13.526;2023-02-14T05:26:32;97986.88;;;2.69;63.20
66479;BME280;53294;47.912;13.526;2023-02-14T05:28:58;97984.19;;;2.62;63.60
66479;BME280;53294;47.912;13.526;2023-02-14T05:31:25;97988.84;;;2.47;63.96
66479;BME280;53294;47.912;13.526;2023-02-14T05:33:52;97992.41;;;2.19;65.04
66479;BME280;53294;47.912;13.526;2023-02-14T05:36:18;97991.09;;;2.02;65.94
66479;BME280;53294;47.912;13.526;2023-02-14T05:38:45;97994.13;;;1.98;66.17
66479;BME280;53294;47.912;13.526;2023-02-14T05:41:12;97985.47;;;2.18;65.19
66479;BME280;53294;47.912;13.526;2023-02-14T05:43:38;97988.69;;;2.07;65.58
66479;BME280;53294;47.912;13.526;2023-02-14T05:46:05;97975.75;;;2.45;64.09
66479;BME280;53294;47.912;13.526;2023-02-14T05:48:32;97981.88;;;2.39;64.33
66479;BME280;53294;47.912;13.526;2023-02-14T05:51:08;97981.66;;;2.41;64.48
66479;BME280;53294;47.912;13.526;2023-02-14T05:53:35;97981.84;;;2.32;64.80
66479;BME280;53294;47.912;13.526;2023-02-14T05:56:02;97982.69;;;2.40;64.54
66479;BME280;53294;47.912;13.526;2023-02-14T05:58:29;97985.56;;;2.45;64.25
66479;BME280;53294;47.912;13.526;2023-02-14T06:00:56;97986.16;;;2.40;64.32
66479;BME280;53294;47.912;13.526;2023-02-14T06:03:24;97980.28;;;2.51;64.06
66479;BME280;53294;47.912;13.526;2023-02-14T06:05:51;97979.66;;;2.49;63.98
66479;BME280;53294;47.912;13.526;2023-02-14T06:08:18;97989.34;;;2.71;63.45
66479;BME280;53294;47.912;13.526;2023-02-14T06:10:45;97988.53;;;2.77;63.17
66479;BME280;53294;47.912;13.526;2023-02-14T06:13:11;97982.03;;;2.86;62.93
66479;BME280;53294;47.912;13.526;2023-02-14T06:15:38;97987.94;;;2.88;63.07
66479;BME280;53294;47.912;13.526;2023-02-14T06:18:05;97991.38;;;2.82;63.36
66479;BME280;53294;47.912;13.526;2023-02-14T06:20:32;97988.94;;;2.87;63.28
66479;BME280;53294;47.912;13.526;2023-02-14T06:22:58;97988.13;;;2.93;63.07
66479;BME280;53294;47.912;13.526;2023-02-14T06:25:25;97990.59;;;2.95;62.75
66479;BME280;53294;47.912;13.526;2023-02-14T06:27:55;97991.34;;;2.68;63.92
66479;BME280;53294;47.912;13.526;2023-02-14T06:30:22;97995.03;;;2.67;64.12
66479;BME280;53294;47.912;13.526;2023-02-14T06:32:50;97988.13;;;2.93;63.13
66479;BME280;53294;47.912;13.526;2023-02-14T06:35:16;97995.09;;;2.94;63.47
66479;BME280;53294;47.912;13.526;2023-02-14T06:37:43;97990.63;;;3.15;62.79
66479;BME280;53294;47.912;13.526;2023-02-14T06:40:11;97992.63;;;2.99;63.65
66479;BME280;53294;47.912;13.526;2023-02-14T06:42:38;97993.28;;;3.08;63.14
66479;BME280;53294;47.912;13.526;2023-02-14T06:45:06;97988.16;;;3.00;63.95
66479;BME280;53294;47.912;13.526;2023-02-14T06:47:32;97989.97;;;2.93;64.97
66479;BME280;53294;47.912;13.526;2023-02-14T06:50:00;97990.34;;;2.76;65.01
66479;BME280;53294;47.912;13.526;2023-02-14T06:52:31;97996.94;;;2.94;64.16
66479;BME280;53294;47.912;13.526;2023-02-14T06:54:57;97991.81;;;3.05;63.79
66479;BME280;53294;47.912;13.526;2023-02-14T06:57:24;97985.50;;;3.20;63.31
66479;BME280;53294;47.912;13.526;2023-02-14T06:59:51;97989.81;;;3.14;63.86
66479;BME280;53294;47.912;13.526;2023-02-14T07:02:17;97983.25;;;3.03;64.58
66479;BME280;53294;47.912;13.526;2023-02-14T07:04:44;97984.88;;;3.04;64.67
66479;BME280;53294;47.912;13.526;2023-02-14T07:07:11;97976.13;;;3.24;63.84
66479;BME280;53294;47.912;13.526;2023-02-14T07:09:37;97980.41;;;3.12;64.56
66479;BME280;53294;47.912;13.526;2023-02-14T07:12:04;97982.03;;;3.26;63.96
66479;BME280;53294;47.912;13.526;2023-02-14T07:14:31;97981.00;;;3.34;63.74
66479;BME280;53294;47.912;13.526;2023-02-14T07:16:57;97981.22;;;3.46;63.42
66479;BME280;53294;47.912;13.526;2023-02-14T07:19:24;97977.94;;;3.57;63.11
66479;BME280;53294;47.912;13.526;2023-02-14T07:21:51;97978.34;;;3.54;63.09
66479;BME280;53294;47.912;13.526;2023-02-14T07:24:17;97977.97;;;3.44;63.58
66479;BME280;53294;47.912;13.526;2023-02-14T07:26:44;97973.66;;;3.56;63.33
66479;BME280;53294;47.912;13.526;2023-02-14T07:29:10;97976.75;;;3.33;64.55
66479;BME280;53294;47.912;13.526;2023-02-14T07:31:37;97980.00;;;3.28;64.75
66479;BME280;53294;47.912;13.526;2023-02-14T07:34:04;97983.69;;;3.20;64.58
66479;BME280;53294;47.912;13.526;2023-02-14T07:36:31;97974.47;;;3.23;64.15
66479;BME280;53294;47.912;13.526;2023-02-14T07:38:57;97974.69;;;3.15;64.19
66479;BME280;53294;47.912;13.526;2023-02-14T07:41:24;97983.06;;;3.12;63.96
66479;BME280;53294;47.912;13.526;2023-02-14T07:43:51;97976.31;;;3.22;63.48
66479;BME280;53294;47.912;13.526;2023-02-14T07:46:17;97970.19;;;3.22;63.31
66479;BME280;53294;47.912;13.526;2023-02-14T07:48:44;97976.31;;;3.16;63.85
66479;BME280;53294;47.912;13.526;2023-02-14T07:51:11;97978.78;;;3.17;63.45
66479;BME280;53294;47.912;13.526;2023-02-14T07:53:37;97977.09;;;2.83;65.24
66479;BME280;53294;47.912;13.526;2023-02-14T07:56:04;97979.53;;;2.78;65.60
66479;BME280;53294;47.912;13.526;2023-02-14T07:58:31;97976.91;;;2.98;64.79
66479;BME280;53294;47.912;13.526;2023-02-14T08:00:57;97974.25;;;2.91;65.17
66479;BME280;53294;47.912;13.526;2023-02-14T08:03:25;97976.69;;;3.06;64.24
66479;BME280;53294;47.912;13.526;2023-02-14T08:05:51;97967.75;;;3.20;63.87
66479;BME280;53294;47.912;13.526;2023-02-14T08:08:24;97973.84;;;2.94;65.20
66479;BME280;53294;47.912;13.526;2023-02-14T08:10:51;97979.97;;;2.88;65.03
66479;BME280;53294;47.912;13.526;2023-02-14T08:13:17;97976.31;;;2.89;65.13
66479;BME280;53294;47.912;13.526;2023-02-14T08:15:44;97973.03;;;2.94;65.31
66479;BME280;53294;47.912;13.526;2023-02-14T08:18:35;97965.69;;;3.02;64.83
66479;BME280;53294;47.912;13.526;2023-02-14T08:21:02;97966.72;;;3.08;64.15
66479;BME280;53294;47.912;13.526;2023-02-14T08:23:29;97964.34;;;2.45;66.90
66479;BME280;53294;47.912;13.526;2023-02-14T08:25:56;97968.47;;;2.54;66.71
66479;BME280;53294;47.912;13.526;2023-02-14T08:28:24;97970.25;;;2.40;67.04
66479;BME280;53294;47.912;13.526;2023-02-14T08:30:52;97968.66;;;2.59;66.35
66479;BME280;53294;47.912;13.526;2023-02-14T08:33:19;97962.75;;;2.57;66.61
66479;BME280;53294;47.912;13.526;2023-02-14T08:35:46;97968.91;;;2.78;65.83
66479;BME280;53294;47.912;13.526;2023-02-14T08:38:14;97970.34;;;2.87;65.45
66479;BME280;53294;47.912;13.526;2023-02-14T08:40:40;97970.38;;;3.00;64.95
66479;BME280;53294;47.912;13.526;2023-02-14T08:43:07;97957.50;;;3.11;65.09
66479;BME280;53294;47.912;13.526;2023-02-14T08:45:34;97962.00;;;3.03;65.12
66479;BME280;53294;47.912;13.526;2023-02-14T08:48:07;97956.06;;;3.01;65.55
66479;BME280;53294;47.912;13.526;2023-02-14T08:50:35;97962.81;;;2.97;65.00
66479;BME280;53294;47.912;13.526;2023-02-14T08:53:09;97965.69;;;2.96;65.19
66479;BME280;53294;47.912;13.526;2023-02-14T08:55:37;97959.56;;;2.95;65.61
66479;BME280;53294;47.912;13.526;2023-02-14T08:58:04;97958.72;;;3.01;65.17
66479;BME280;53294;47.912;13.526;2023-02-14T09:00:32;97957.09;;;3.00;65.08
66479;BME280;53294;47.912;13.526;2023-02-14T09:02:59;97960.78;;;2.99;65.85
66479;BME280;53294;47.912;13.526;2023-02-14T09:05:26;97950.03;;;2.32;68.54
66479;BME280;53294;47.912;13.526;2023-02-14T09:07:52;97963.69;;;2.36;68.65
66479;BME280;53294;47.912;13.526;2023-02-14T09:10:22;97958.72;;;2.88;66.21
66479;BME280;53294;47.912;13.526;2023-02-14T09:12:49;97962.81;;;2.97;66.29
66479;BME280;53294;47.912;13.526;2023-02-14T09:15:16;97958.13;;;3.19;65.88
66479;BME280;53294;47.912;13.526;2023-02-14T09:17:43;97959.97;;;3.32;65.40
66479;BME280;53294;47.912;13.526;2023-02-14T09:20:13;97964.03;;;3.01;67.33
66479;BME280;53294;47.912;13.526;2023-02-14T09:22:40;97966.00;;;2.59;68.83
66479;BME280;53294;47.912;13.526;2023-02-14T09:25:07;97956.59;;;2.50;69.79
66479;BME280;53294;47.912;13.526;2023-02-14T09:27:33;97959.56;;;3.02;67.36
66479;BME280;53294;47.912;13.526;2023-02-14T09:30:00;97960.16;;;3.04;67.03
66479;BME280;53294;47.912;13.526;2023-02-14T09:32:27;97950.75;;;3.01;66.81
66479;BME280;53294;47.912;13.526;2023-02-14T09:34:54;97955.47;;;3.26;66.25
66479;BME280;53294;47.912;13.526;2023-02-14T09:37:21;97945.66;;;3.47;65.47
66479;BME280;53294;47.912;13.526;2023-02-14T09:39:48;97950.56;;;3.23;66.57
66479;BME280;53294;47.912;13.526;2023-02-14T09:42:35;97950.59;;;3.10;67.06
66479;BME280;53294;47.912;13.526;2023-02-14T09:45:12;97951.38;;;2.77;68.72
66479;BME280;53294;47.912;13.526;2023-02-14T09:50:45;97950.97;;;2.80;68.64
66479;BME280;53294;47.912;13.526;2023-02-14T09:55:53;97952.22;;;2.97;68.71
66479;BME280;53294;47.912;13.526;2023-02-14T10:01:08;97940.34;;;3.40;67.57
66479;BME280;53294;47.912;13.526;2023-02-14T10:12:32;97943.22;;;2.78;69.74
66479;BME280;53294;47.912;13.526;2023-02-14T10:15:05;97931.16;;;3.02;69.46
66479;BME280;53294;47.912;13.526;2023-02-14T10:17:47;97929.88;;;3.58;67.91
66479;BME280;53294;47.912;13.526;2023-02-14T10:20:31;97922.69;;;3.86;66.50
66479;BME280;53294;47.912;13.526;2023-02-14T10:23:02;97916.09;;;3.88;67.19
66479;BME280;53294;47.912;13.526;2023-02-14T10:25:39;97915.22;;;4.08;67.15
66479;BME280;53294;47.912;13.526;2023-02-14T10:28:11;97918.41;;;4.30;66.52
66479;BME280;53294;47.912;13.526;2023-02-14T10:30:51;97918.09;;;4.06;67.28
66479;BME280;53294;47.912;13.526;2023-02-14T10:33:25;97915.06;;;4.03;66.54
66479;BME280;53294;47.912;13.526;2023-02-14T10:36:11;97919.53;;;4.09;66.78
66479;BME280;53294;47.912;13.526;2023-02-14T10:44:16;97911.97;;;3.99;68.21
66479;BME280;53294;47.912;13.526;2023-02-14T10:49:48;97911.47;;;4.61;66.61
66479;BME280;53294;47.912;13.526;2023-02-14T10:52:56;97908.31;;;4.77;66.64
66479;BME280;53294;47.912;13.526;2023-02-14T10:55:23;97900.38;;;4.96;65.96
66479;BME280;53294;47.912;13.526;2023-02-14T10:58:00;97901.19;;;5.21;66.03
66479;BME280;53294;47.912;13.526;2023-02-14T11:00:32;97891.59;;;5.20;65.29
66479;BME280;53294;47.912;13.526;2023-02-14T11:03:02;97891.34;;;5.66;65.17
66479;BME280;53294;47.912;13.526;2023-02-14T11:05:38;97880.94;;;5.76;63.76
66479;BME280;53294;47.912;13.526;2023-02-14T11:08:28;97876.06;;;5.91;63.84
66479;BME280;53294;47.912;13.526;2023-02-14T11:11:26;97884.81;;;6.17;63.72
66479;BME280;53294;47.912;13.526;2023-02-14T11:13:55;97873.31;;;6.47;63.13
66479;BME280;53294;47.912;13.526;2023-02-14T11:16:31;97872.88;;;6.50;63.04
66479;BME280;53294;47.912;13.526;2023-02-14T11:19:30;97871.44;;;6.78;62.74
66479;BME280;53294;47.912;13.526;2023-02-14T11:22:02;97865.84;;;6.91;61.94
66479;BME280;53294;47.912;13.526;2023-02-14T11:24:35;97862.59;;;6.89;61.07
66479;BME280;53294;47.912;13.526;2023-02-14T11:32:14;97855.53;;;7.07;61.52
66479;BME280;53294;47.912;13.526;2023-02-14T11:34:46;97858.94;;;7.26;61.00
66479;BME280;53294;47.912;13.526;2023-02-14T11:39:52;97857.22;;;6.65;64.02
66479;BME280;53294;47.912;13.526;2023-02-14T11:45:03;97856.84;;;6.20;63.63
66479;BME280;53294;47.912;13.526;2023-02-14T11:47:33;97862.00;;;5.66;65.78
66479;BME280;53294;47.912;13.526;2023-02-14T11:50:21;97850.25;;;6.22;63.94
66479;BME280;53294;47.912;13.526;2023-02-14T11:52:52;97850.31;;;6.46;63.15
66479;BME280;53294;47.912;13.526;2023-02-14T11:55:29;97842.97;;;6.83;62.11
66479;BME280;53294;47.912;13.526;2023-02-14T11:57:59;97853.38;;;6.61;62.59
66479;BME280;53294;47.912;13.526;2023-02-14T12:00:27;97841.38;;;6.10;63.52
66479;BME280;53294;47.912;13.526;2023-02-14T12:02:58;97842.00;;;5.56;65.71
66479;BME280;53294;47.912;13.526;2023-02-14T12:05:42;97843.22;;;5.17;68.03
66479;BME280;53294;47.912;13.526;2023-02-14T12:08:10;97838.81;;;5.48;66.30
66479;BME280;53294;47.912;13.526;2023-02-14T12:10:38;97836.22;;;5.22;66.97
66479;BME280;53294;47.912;13.526;2023-02-14T12:15:36;97829.34;;;6.19;65.17
66479;BME280;53294;47.912;13.526;2023-02-14T12:18:36;97825.19;;;6.23;64.82
66479;BME280;53294;47.912;13.526;2023-02-14T12:26:34;97807.09;;;6.79;63.36
66479;BME280;53294;47.912;13.526;2023-02-14T12:29:23;97813.38;;;6.01;64.68
66479;BME280;53294;47.912;13.526;2023-02-14T12:31:53;97812.94;;;5.85;66.70
66479;BME280;53294;47.912;13.526;2023-02-14T12:34:22;97810.44;;;6.51;63.90
66479;BME280;53294;47.912;13.526;2023-02-14T12:37:26;97803.91;;;6.47;63.84
66479;BME280;53294;47.912;13.526;2023-02-14T12:40:05;97800.22;;;6.72;63.55
66479;BME280;53294;47.912;13.526;2023-02-14T12:45:18;97798.63;;;6.28;65.28
66479;BME280;53294;47.912;13.526;2023-02-14T12:50:39;97788.47;;;6.07;65.37
66479;BME280;53294;47.912;13.526;2023-02-14T12:53:34;97784.78;;;6.08;65.28
66479;BME280;53294;47.912;13.526;2023-02-14T12:56:34;97791.53;;;5.92;65.45
66479;BME280;53294;47.912;13.526;2023-02-14T13:04:54;97778.94;;;5.50;66.48
66479;BME280;53294;47.912;13.526;2023-02-14T13:11:16;97785.97;;;4.82;68.99
66479;BME280;53294;47.912;13.526;2023-02-14T13:13:57;97770.81;;;5.27;67.94
66479;BME280;53294;47.912;13.526;2023-02-14T13:16:50;97770.31;;;5.30;66.91
66479;BME280;53294;47.912;13.526;2023-02-14T13:22:26;97773.06;;;4.61;70.69
66479;BME280;53294;47.912;13.526;2023-02-14T13:25:03;97764.63;;;5.08;68.18
66479;BME280;53294;47.912;13.526;2023-02-14T13:27:34;97766.94;;;5.41;67.52
66479;BME280;53294;47.912;13.526;2023-02-14T13:30:27;97766.31;;;5.57;67.05
66479;BME280;53294;47.912;13.526;2023-02-14T13:32:56;97763.41;;;5.78;66.70
66479;BME280;53294;47.912;13.526;2023-02-14T13:35:27;97764.56;;;4.96;68.34
66479;BME280;53294;47.912;13.526;2023-02-14T13:38:01;97771.78;;;4.89;68.84
66479;BME280;53294;47.912;13.526;2023-02-14T13:40:29;97765.75;;;5.18;67.70
66479;BME280;53294;47.912;13.526;2023-02-14T13:42:59;97758.88;;;5.11;68.16
66479;BME280;53294;47.912;13.526;2023-02-14T13:50:49;97759.69;;;5.11;68.37
66479;BME280;53294;47.912;13.526;2023-02-14T13:56:04;97758.59;;;5.19;67.76
66479;BME280;53294;47.912;13.526;2023-02-14T13:58:32;97763.25;;;5.05;68.63
66479;BME280;53294;47.912;13.526;2023-02-14T14:04:31;97757.00;;;5.48;67.49
66479;BME280;53294;47.912;13.526;2023-02-14T14:20:45;97744.94;;;5.46;67.29
66479;BME280;53294;47.912;13.526;2023-02-14T14:23:34;97746.75;;;5.64;66.49
66479;BME280;53294;47.912;13.526;2023-02-14T14:26:35;97753.44;;;5.54;66.34
66479;BME280;53294;47.912;13.526;2023-02-14T14:29:10;97754.63;;;5.40;67.50
66479;BME280;53294;47.912;13.526;2023-02-14T14:31:39;97754.63;;;5.03;68.58
66479;BME280;53294;47.912;13.526;2023-02-14T14:34:15;97761.59;;;5.04;68.59
66479;BME280;53294;47.912;13.526;2023-02-14T14:37:15;97763.63;;;4.65;69.85
66479;BME280;53294;47.912;13.526;2023-02-14T14:39:49;97764.09;;;4.30;71.24
66479;BME280;53294;47.912;13.526;2023-02-14T14:42:17;97765.31;;;4.34;70.66
66479;BME280;53294;47.912;13.526;2023-02-14T14:44:57;97762.50;;;4.22;71.51
66479;BME280;53294;47.912;13.526;2023-02-14T14:47:28;97765.63;;;3.81;73.32
66479;BME280;53294;47.912;13.526;2023-02-14T14:49:58;97758.75;;;4.37;70.95
66479;BME280;53294;47.912;13.526;2023-02-14T14:52:31;97764.53;;;3.95;72.25
66479;BME280;53294;47.912;13.526;2023-02-14T14:54:59;97760.44;;;3.54;74.53
66479;BME280;53294;47.912;13.526;2023-02-14T14:57:27;97770.66;;;3.64;73.30
66479;BME280;53294;47.912;13.526;2023-02-14T15:00:21;97763.19;;;3.79;73.34
66479;BME280;53294;47.912;13.526;2023-02-14T15:05:39;97752.66;;;3.98;72.36
66479;BME280;53294;47.912;13.526;2023-02-14T15:10:55;97753.13;;;4.70;68.82
66479;BME280;53294;47.912;13.526;2023-02-14T15:16:28;97752.72;;;5.10;67.51
66479;BME280;53294;47.912;13.526;2023-02-14T15:18:59;97753.03;;;5.20;66.96
66479;BME280;53294;47.912;13.526;2023-02-14T15:21:27;97750.50;;;5.26;66.76
66479;BME280;53294;47.912;13.526;2023-02-14T15:23:53;97754.72;;;5.33;66.67
66479;BME280;53294;47.912;13.526;2023-02-14T15:26:28;97753.31;;;5.31;66.61
66479;BME280;53294;47.912;13.526;2023-02-14T15:29:01;97751.25;;;5.14;67.49
66479;BME280;53294;47.912;13.526;2023-02-14T15:31:32;97766.50;;;4.38;69.93
66479;BME280;53294;47.912;13.526;2023-02-14T15:34:00;97767.16;;;4.59;68.72
66479;BME280;53294;47.912;13.526;2023-02-14T15:36:29;97755.75;;;4.95;67.23